createdAt,value
2022-08-31T00:01:45.551Z,26.14
2022-08-31T00:03:50.240Z,26.14
2022-08-31T00:05:54.961Z,26.14
2022-08-31T00:07:59.578Z,26.14
2022-08-31T00:10:04.212Z,26.15
2022-08-31T00:12:08.821Z,26.14
2022-08-31T00:14:14.777Z,26.13
2022-08-31T00:16:20.812Z,26.12
2022-08-31T00:18:25.556Z,26.11
2022-08-31T00:20:32.915Z,26.1
2022-08-31T00:22:38.888Z,26.1
2022-08-31T00:24:43.403Z,26.11
2022-08-31T00:26:47.921Z,26.1
2022-08-31T00:28:52.439Z,26.1
2022-08-31T00:30:56.958Z,26.06
2022-08-31T00:33:01.477Z,26.05
2022-08-31T00:35:06.101Z,26.07
2022-08-31T00:37:10.614Z,26.05
2022-08-31T00:39:15.241Z,26.06
2022-08-31T00:41:20.065Z,26.04
2022-08-31T00:43:24.687Z,26.06
2022-08-31T00:45:29.328Z,26.06
2022-08-31T00:47:34.152Z,26.09
2022-08-31T00:49:38.751Z,26.08
2022-08-31T00:51:43.375Z,26.09
2022-08-31T00:53:47.891Z,26.09
2022-08-31T00:55:55.481Z,26.07
2022-08-31T00:58:00.103Z,26.07
2022-08-31T01:00:04.619Z,26.05
2022-08-31T01:02:09.794Z,26.03
2022-08-31T01:04:14.691Z,26.03
2022-08-31T01:06:19.200Z,26.02
2022-08-31T01:08:24.506Z,26.01
2022-08-31T01:10:35.302Z,26
2022-08-31T01:12:39.819Z,26
2022-08-31T01:14:47.923Z,26.01
2022-08-31T01:16:52.579Z,26.01
2022-08-31T01:18:57.167Z,26
2022-08-31T01:21:01.683Z,26
2022-08-31T01:23:06.303Z,25.98
2022-08-31T01:25:11.849Z,25.95
2022-08-31T01:27:16.367Z,25.96
2022-08-31T01:29:21.088Z,25.97
2022-08-31T01:31:25.626Z,25.95
2022-08-31T01:33:30.328Z,25.94
2022-08-31T01:35:35.057Z,25.94
2022-08-31T01:37:39.744Z,25.93
2022-08-31T01:39:44.395Z,25.93
2022-08-31T01:41:48.941Z,25.92
2022-08-31T01:43:53.633Z,25.89
2022-08-31T01:45:58.356Z,25.9
2022-08-31T01:48:02.983Z,25.88
2022-08-31T01:50:07.427Z,25.87
2022-08-31T01:52:12.115Z,25.85
2022-08-31T01:54:16.635Z,25.85
2022-08-31T01:56:21.257Z,25.83
2022-08-31T01:58:25.887Z,25.83
2022-08-31T02:00:30.650Z,25.83
2022-08-31T02:02:35.476Z,25.84
2022-08-31T02:04:40.362Z,25.84
2022-08-31T02:06:44.976Z,25.83
2022-08-31T02:08:49.599Z,25.8
2022-08-31T02:10:54.221Z,25.79
2022-08-31T02:12:58.947Z,25.81
2022-08-31T02:15:03.571Z,25.8
2022-08-31T02:17:08.179Z,25.78
2022-08-31T02:19:12.913Z,25.78
2022-08-31T02:21:17.533Z,25.77
2022-08-31T02:23:22.152Z,25.76
2022-08-31T02:25:26.655Z,25.73
2022-08-31T02:27:31.291Z,25.75
2022-08-31T02:29:35.913Z,25.75
2022-08-31T02:31:40.509Z,25.75
2022-08-31T02:33:45.257Z,25.75
2022-08-31T02:35:50.379Z,25.77
2022-08-31T02:37:59.003Z,25.74
2022-08-31T02:40:03.636Z,25.76
2022-08-31T02:42:14.800Z,25.76
2022-08-31T02:44:21.975Z,25.76
2022-08-31T02:46:26.536Z,25.75
2022-08-31T02:48:31.423Z,25.74
2022-08-31T02:50:36.041Z,25.74
2022-08-31T02:52:42.711Z,25.72
2022-08-31T02:54:47.333Z,25.7
2022-08-31T02:56:51.847Z,25.71
2022-08-31T02:58:56.474Z,25.72
2022-08-31T03:01:00.985Z,25.72
2022-08-31T03:03:05.722Z,25.72
2022-08-31T03:05:10.647Z,25.73
2022-08-31T03:07:15.264Z,25.74
2022-08-31T03:09:22.457Z,25.73
2022-08-31T03:11:26.957Z,25.72
2022-08-31T03:13:31.578Z,25.72
2022-08-31T03:15:36.258Z,25.69
2022-08-31T03:17:41.130Z,25.69
2022-08-31T03:19:45.751Z,25.7
2022-08-31T03:21:51.924Z,25.67
2022-08-31T03:24:00.845Z,25.68
2022-08-31T03:26:05.448Z,25.66
2022-08-31T03:28:10.067Z,25.65
2022-08-31T03:30:14.583Z,25.6
2022-08-31T03:32:19.205Z,25.58
2022-08-31T03:34:23.724Z,25.57
2022-08-31T03:36:28.244Z,25.59
2022-08-31T03:38:32.866Z,25.58
2022-08-31T03:40:37.633Z,25.57
2022-08-31T03:42:42.720Z,25.57
2022-08-31T03:44:47.238Z,25.55
2022-08-31T03:46:51.859Z,25.56
2022-08-31T03:48:56.378Z,25.56
2022-08-31T03:51:00.998Z,25.54
2022-08-31T03:53:05.514Z,25.52
2022-08-31T03:55:10.136Z,25.53
2022-08-31T03:57:14.764Z,25.53
2022-08-31T03:59:19.379Z,25.56
2022-08-31T04:01:24.027Z,25.57
2022-08-31T04:03:28.924Z,25.57
2022-08-31T04:05:33.445Z,25.55
2022-08-31T04:07:42.120Z,25.53
2022-08-31T04:09:47.507Z,25.52
2022-08-31T04:11:52.221Z,25.53
2022-08-31T04:13:56.842Z,25.55
2022-08-31T04:16:01.449Z,25.52
2022-08-31T04:18:06.187Z,25.55
2022-08-31T04:20:10.808Z,25.55
2022-08-31T04:22:15.323Z,25.57
2022-08-31T04:24:19.946Z,25.6
2022-08-31T04:26:24.567Z,25.6
2022-08-31T04:28:29.082Z,25.6
2022-08-31T04:30:33.708Z,25.61
2022-08-31T04:32:38.220Z,25.61
2022-08-31T04:34:42.942Z,25.61
2022-08-31T04:36:47.464Z,25.63
2022-08-31T04:38:52.697Z,25.61
2022-08-31T04:40:57.523Z,25.63
2022-08-31T04:43:02.456Z,25.62
2022-08-31T04:45:07.073Z,25.64
2022-08-31T04:47:11.592Z,25.64
2022-08-31T04:49:16.209Z,25.63
2022-08-31T04:51:21.924Z,25.62
2022-08-31T04:53:26.579Z,25.62
2022-08-31T04:55:31.133Z,25.61
2022-08-31T04:57:35.729Z,25.6
2022-08-31T04:59:40.340Z,25.61
2022-08-31T05:01:45.039Z,25.58
2022-08-31T05:03:50.095Z,25.56
2022-08-31T05:05:54.715Z,25.55
2022-08-31T05:07:59.231Z,25.54
2022-08-31T05:10:03.850Z,25.53
2022-08-31T05:12:08.474Z,25.53
2022-08-31T05:14:12.992Z,25.55
2022-08-31T05:16:17.646Z,25.54
2022-08-31T05:18:22.545Z,25.53
2022-08-31T05:20:27.158Z,25.53
2022-08-31T05:22:31.792Z,25.53
2022-08-31T05:24:36.408Z,25.54
2022-08-31T05:26:41.902Z,25.55
2022-08-31T05:28:46.749Z,25.54
2022-08-31T05:30:51.359Z,25.54
2022-08-31T05:32:56.260Z,25.52
2022-08-31T05:35:00.947Z,25.52
2022-08-31T05:37:05.766Z,25.52
2022-08-31T05:39:10.397Z,25.53
2022-08-31T05:41:15.410Z,25.52
2022-08-31T05:43:20.349Z,25.51
2022-08-31T05:45:25.072Z,25.51
2022-08-31T05:47:29.592Z,25.52
2022-08-31T05:49:34.314Z,25.54
2022-08-31T05:51:38.901Z,25.54
2022-08-31T05:53:44.480Z,25.54
2022-08-31T05:55:49.094Z,25.54
2022-08-31T05:57:53.720Z,25.55
2022-08-31T05:59:58.634Z,25.55
2022-08-31T06:02:03.381Z,25.56
2022-08-31T06:04:08.294Z,25.56
2022-08-31T06:06:12.824Z,25.56
2022-08-31T06:08:17.435Z,25.56
2022-08-31T06:10:30.765Z,25.55
2022-08-31T06:12:35.274Z,25.56
2022-08-31T06:14:40.819Z,25.54
2022-08-31T06:16:55.270Z,25.52
2022-08-31T06:18:59.890Z,25.52
2022-08-31T06:21:04.510Z,25.51
2022-08-31T06:23:09.232Z,25.5
2022-08-31T06:25:14.060Z,25.51
2022-08-31T06:27:18.572Z,25.48
2022-08-31T06:29:23.295Z,25.48
2022-08-31T06:31:27.939Z,25.5
2022-08-31T06:33:32.842Z,25.52
2022-08-31T06:35:37.360Z,25.54
2022-08-31T06:37:41.988Z,25.55
2022-08-31T06:39:46.622Z,25.55
2022-08-31T06:41:51.357Z,25.56
2022-08-31T06:43:55.790Z,25.57
2022-08-31T06:46:00.550Z,25.59
2022-08-31T06:48:05.268Z,25.61
2022-08-31T06:50:09.815Z,25.65
2022-08-31T06:52:14.336Z,25.64
2022-08-31T06:54:29.287Z,25.64
2022-08-31T06:56:34.529Z,25.64
2022-08-31T06:58:39.041Z,25.64
2022-08-31T07:00:43.671Z,25.64
2022-08-31T07:02:53.109Z,25.64
2022-08-31T07:05:02.534Z,25.64
2022-08-31T07:07:07.277Z,25.64
2022-08-31T07:09:12.099Z,25.63
2022-08-31T07:11:17.022Z,25.63
2022-08-31T07:13:21.849Z,25.62
2022-08-31T07:15:26.675Z,25.6
2022-08-31T07:17:31.500Z,25.59
2022-08-31T07:19:36.225Z,25.58
2022-08-31T07:21:48.839Z,25.58
2022-08-31T07:23:53.663Z,25.57
2022-08-31T07:25:58.585Z,25.54
2022-08-31T07:28:03.407Z,25.52
2022-08-31T07:30:09.471Z,25.51
2022-08-31T07:32:14.392Z,25.5
2022-08-31T07:34:19.229Z,25.51
2022-08-31T07:36:24.246Z,25.52
2022-08-31T07:38:29.179Z,25.51
2022-08-31T07:40:34.062Z,25.49
2022-08-31T07:42:39.855Z,25.49
2022-08-31T07:44:51.957Z,25.49
2022-08-31T07:46:58.105Z,25.49
2022-08-31T07:49:03.233Z,25.49
2022-08-31T07:51:09.780Z,25.5
2022-08-31T07:53:19.110Z,25.5
2022-08-31T07:55:27.361Z,25.51
2022-08-31T07:57:32.161Z,25.51
2022-08-31T07:59:36.984Z,25.51
2022-08-31T08:01:41.881Z,25.52
2022-08-31T08:03:46.736Z,25.52
2022-08-31T08:05:51.694Z,25.5
2022-08-31T08:07:57.007Z,25.49
2022-08-31T08:10:01.833Z,25.48
2022-08-31T08:12:07.993Z,25.49
2022-08-31T08:14:16.193Z,25.5
2022-08-31T08:16:22.826Z,25.5
2022-08-31T08:18:27.784Z,25.5
2022-08-31T08:20:34.240Z,25.49
2022-08-31T08:22:52.055Z,25.48
2022-08-31T08:24:59.673Z,25.48
2022-08-31T08:27:05.533Z,25.48
2022-08-31T08:29:10.753Z,25.49
2022-08-31T08:31:15.670Z,25.49
2022-08-31T08:33:20.891Z,25.49
2022-08-31T08:35:25.947Z,25.5
2022-08-31T08:37:54.690Z,25.49
2022-08-31T08:40:10.552Z,25.48
2022-08-31T08:42:15.325Z,25.49
2022-08-31T08:44:19.905Z,25.48
2022-08-31T08:46:34.258Z,25.48
2022-08-31T08:48:40.040Z,25.47
2022-08-31T08:50:47.226Z,25.48
2022-08-31T08:52:51.749Z,25.45
2022-08-31T08:54:56.358Z,25.47
2022-08-31T08:57:01.510Z,25.48
2022-08-31T08:59:09.999Z,25.48
2022-08-31T09:01:22.771Z,25.5
2022-08-31T09:03:27.647Z,25.51
2022-08-31T09:05:36.560Z,25.52
2022-08-31T09:07:41.399Z,25.52
2022-08-31T09:09:46.127Z,25.52
2022-08-31T09:11:50.838Z,25.53
2022-08-31T09:13:55.567Z,25.53
2022-08-31T09:16:00.434Z,25.54
2022-08-31T09:18:06.549Z,25.54
2022-08-31T09:20:11.265Z,25.52
2022-08-31T09:22:15.987Z,25.53
2022-08-31T09:24:20.607Z,25.54
2022-08-31T09:26:25.131Z,25.52
2022-08-31T09:28:29.848Z,25.53
2022-08-31T09:30:34.627Z,25.53
2022-08-31T09:32:39.193Z,25.53
2022-08-31T09:34:44.069Z,25.52
2022-08-31T09:36:48.739Z,25.51
2022-08-31T09:38:53.462Z,25.51
2022-08-31T09:40:58.159Z,25.51
2022-08-31T09:43:05.071Z,25.51
2022-08-31T09:45:10.605Z,25.5
2022-08-31T09:47:17.785Z,25.5
2022-08-31T09:49:22.407Z,25.51
2022-08-31T09:51:27.028Z,25.52
2022-08-31T09:53:31.647Z,25.51
2022-08-31T09:55:36.269Z,25.5
2022-08-31T09:57:40.893Z,25.5
2022-08-31T09:59:45.523Z,25.5
2022-08-31T10:01:50.388Z,25.51
2022-08-31T10:03:55.272Z,25.51
2022-08-31T10:05:59.895Z,25.52
2022-08-31T10:08:04.425Z,25.54
2022-08-31T10:10:12.560Z,25.55
2022-08-31T10:12:35.253Z,25.56
2022-08-31T10:14:39.990Z,25.55
2022-08-31T10:16:44.607Z,25.56
2022-08-31T10:18:49.325Z,25.56
2022-08-31T10:20:53.951Z,25.58
2022-08-31T10:22:58.675Z,25.58
2022-08-31T10:25:03.299Z,25.59
2022-08-31T10:27:08.019Z,25.58
2022-08-31T10:29:14.713Z,25.59
2022-08-31T10:31:27.455Z,25.59
2022-08-31T10:33:32.330Z,25.6
2022-08-31T10:35:36.956Z,25.61
2022-08-31T10:37:41.574Z,25.64
2022-08-31T10:39:46.298Z,25.65
2022-08-31T10:41:50.923Z,25.64
2022-08-31T10:43:55.439Z,25.64
2022-08-31T10:46:00.189Z,25.65
2022-08-31T10:48:05.000Z,25.67
2022-08-31T10:50:09.613Z,25.67
2022-08-31T10:52:14.234Z,25.7
2022-08-31T10:54:18.753Z,25.71
2022-08-31T10:56:24.013Z,25.7
2022-08-31T10:58:29.329Z,25.72
2022-08-31T11:00:34.049Z,25.71
2022-08-31T11:02:38.672Z,25.71
2022-08-31T11:04:43.215Z,25.71
2022-08-31T11:06:48.123Z,25.7
2022-08-31T11:08:52.741Z,25.69
2022-08-31T11:10:57.269Z,25.68
2022-08-31T11:13:01.886Z,25.67
2022-08-31T11:15:06.507Z,25.67
2022-08-31T11:17:12.048Z,25.66
2022-08-31T11:19:16.771Z,25.67
2022-08-31T11:21:21.602Z,25.67
2022-08-31T11:23:26.219Z,25.66
2022-08-31T11:25:31.046Z,25.66
2022-08-31T11:27:35.598Z,25.68
2022-08-31T11:29:40.287Z,25.68
2022-08-31T11:31:44.957Z,25.68
2022-08-31T11:34:06.221Z,25.67
2022-08-31T11:36:21.000Z,25.66
2022-08-31T11:38:25.609Z,25.64
2022-08-31T11:40:30.353Z,25.66
2022-08-31T11:42:39.054Z,25.67
2022-08-31T11:44:43.673Z,25.68
2022-08-31T11:46:48.397Z,25.68
2022-08-31T11:48:53.939Z,25.68
2022-08-31T11:50:59.172Z,25.67
2022-08-31T11:53:03.799Z,25.69
2022-08-31T11:55:08.316Z,25.68
2022-08-31T11:57:13.032Z,25.67
2022-08-31T11:59:17.771Z,25.67
2022-08-31T12:01:22.385Z,25.67
2022-08-31T12:03:27.365Z,25.66
2022-08-31T12:05:31.985Z,25.64
2022-08-31T12:07:36.871Z,25.63
2022-08-31T12:09:41.733Z,25.63
2022-08-31T12:11:46.410Z,25.64
2022-08-31T12:13:51.040Z,25.64
2022-08-31T12:15:55.819Z,25.65
2022-08-31T12:18:00.891Z,25.67
2022-08-31T12:20:05.797Z,25.71
2022-08-31T12:22:10.447Z,25.71
2022-08-31T12:24:15.318Z,25.69
2022-08-31T12:26:24.094Z,25.67
2022-08-31T12:28:29.442Z,25.65
2022-08-31T12:30:34.101Z,25.62
2022-08-31T12:32:38.978Z,25.6
2022-08-31T12:34:43.601Z,25.59
2022-08-31T12:36:49.884Z,25.58
2022-08-31T12:38:55.505Z,25.54
2022-08-31T12:41:00.038Z,25.54
2022-08-31T12:43:04.553Z,25.54
2022-08-31T12:45:09.169Z,25.56
2022-08-31T12:47:13.787Z,25.58
2022-08-31T12:49:18.411Z,25.6
2022-08-31T12:51:23.137Z,25.63
2022-08-31T12:53:27.856Z,25.65
2022-08-31T12:55:32.492Z,25.66
2022-08-31T12:57:37.207Z,25.69
2022-08-31T12:59:59.714Z,25.71
2022-08-31T13:02:07.920Z,25.72
2022-08-31T13:04:14.928Z,25.72
2022-08-31T13:06:19.491Z,25.73
2022-08-31T13:08:24.169Z,25.72
2022-08-31T13:10:28.687Z,25.73
2022-08-31T13:12:33.307Z,25.72
2022-08-31T13:14:37.943Z,25.72
2022-08-31T13:16:42.588Z,25.73
2022-08-31T13:18:47.495Z,25.71
2022-08-31T13:20:57.847Z,25.69
2022-08-31T13:23:02.392Z,25.68
2022-08-31T13:25:06.984Z,25.7
2022-08-31T13:27:11.706Z,25.69
2022-08-31T13:29:16.328Z,25.71
2022-08-31T13:31:20.887Z,25.72
2022-08-31T13:33:25.671Z,25.7
2022-08-31T13:35:30.291Z,25.72
2022-08-31T13:37:34.910Z,25.74
2022-08-31T13:39:39.438Z,25.76
2022-08-31T13:41:44.054Z,25.75
2022-08-31T13:43:48.670Z,25.73
2022-08-31T13:45:53.377Z,25.75
2022-08-31T13:47:58.405Z,25.74
2022-08-31T13:50:02.958Z,25.78
2022-08-31T13:52:07.770Z,25.76
2022-08-31T13:54:12.394Z,25.75
2022-08-31T13:56:17.016Z,25.77
2022-08-31T13:58:21.968Z,25.78
2022-08-31T14:00:26.524Z,25.78
2022-08-31T14:02:37.035Z,25.76
2022-08-31T14:04:42.355Z,25.78
2022-08-31T14:06:46.969Z,25.78
2022-08-31T14:08:51.401Z,25.75
2022-08-31T14:10:55.930Z,25.74
2022-08-31T14:13:00.635Z,25.76
2022-08-31T14:15:05.263Z,25.75
2022-08-31T14:17:09.935Z,25.76
2022-08-31T14:19:14.807Z,25.75
2022-08-31T14:21:21.422Z,25.75
2022-08-31T14:23:28.043Z,25.73
2022-08-31T14:25:32.773Z,25.76
2022-08-31T14:27:37.315Z,25.74
2022-08-31T14:29:42.030Z,25.74
2022-08-31T14:31:46.631Z,25.76
2022-08-31T14:33:51.202Z,25.75
2022-08-31T14:35:55.884Z,25.74
2022-08-31T14:38:02.549Z,25.73
2022-08-31T14:40:08.018Z,25.73
2022-08-31T14:42:13.330Z,25.73
2022-08-31T14:44:18.050Z,25.74
2022-08-31T14:46:22.735Z,25.74
2022-08-31T14:48:27.701Z,25.71
2022-08-31T14:50:32.323Z,25.73
2022-08-31T14:52:36.949Z,25.76
2022-08-31T14:54:41.562Z,25.77
2022-08-31T14:56:46.125Z,25.79
2022-08-31T14:58:51.558Z,25.8
2022-08-31T15:00:57.514Z,25.8
2022-08-31T15:03:02.304Z,25.82
2022-08-31T15:05:06.926Z,25.82
2022-08-31T15:07:11.468Z,25.83
2022-08-31T15:09:16.172Z,25.84
2022-08-31T15:11:20.783Z,25.86
2022-08-31T15:13:25.301Z,25.86
2022-08-31T15:15:36.998Z,25.85
2022-08-31T15:17:41.628Z,25.86
2022-08-31T15:19:46.240Z,25.86
2022-08-31T15:21:52.647Z,25.85
2022-08-31T15:24:06.763Z,25.84
2022-08-31T15:26:11.467Z,25.84
2022-08-31T15:28:16.292Z,25.85
2022-08-31T15:30:21.429Z,25.82
2022-08-31T15:32:25.982Z,25.8
2022-08-31T15:34:30.675Z,25.8
2022-08-31T15:36:35.220Z,25.81
2022-08-31T15:38:39.888Z,25.81
2022-08-31T15:40:48.041Z,25.79
2022-08-31T15:42:52.946Z,25.81
2022-08-31T15:44:57.667Z,25.82
2022-08-31T15:47:02.295Z,25.82
2022-08-31T15:49:06.915Z,25.83
2022-08-31T15:51:11.538Z,25.84
2022-08-31T15:53:16.263Z,25.85
2022-08-31T15:55:20.882Z,25.85
2022-08-31T15:57:25.606Z,25.83
2022-08-31T15:59:30.227Z,25.84
2022-08-31T16:01:36.109Z,25.83
2022-08-31T16:03:41.002Z,25.82
2022-08-31T16:05:45.761Z,25.83
2022-08-31T16:07:50.666Z,25.84
2022-08-31T16:09:55.380Z,25.87
2022-08-31T16:12:00.004Z,25.92
2022-08-31T16:14:04.649Z,25.94
2022-08-31T16:16:09.486Z,25.95
2022-08-31T16:18:14.392Z,25.99
2022-08-31T16:20:19.099Z,26.01
2022-08-31T16:22:25.726Z,26.03
2022-08-31T16:24:35.643Z,26.03
2022-08-31T16:26:40.290Z,26.01
2022-08-31T16:28:44.856Z,26.03
2022-08-31T16:30:49.475Z,26
2022-08-31T16:32:55.894Z,26.01
2022-08-31T16:35:00.559Z,26
2022-08-31T16:37:05.288Z,26.02
2022-08-31T16:39:10.025Z,26.01
2022-08-31T16:41:14.633Z,26.02
2022-08-31T16:43:19.362Z,26.01
2022-08-31T16:45:24.074Z,26.02
2022-08-31T16:47:28.905Z,26.03
2022-08-31T16:49:33.557Z,26.02
2022-08-31T16:51:38.251Z,26.03
2022-08-31T16:53:42.978Z,26.02
2022-08-31T16:55:47.673Z,26
2022-08-31T16:57:52.322Z,25.98
2022-08-31T16:59:56.952Z,25.9
2022-08-31T17:02:01.625Z,25.83
2022-08-31T17:04:06.384Z,25.75
2022-08-31T17:06:10.864Z,25.7
2022-08-31T17:08:15.533Z,25.67
2022-08-31T17:10:20.157Z,25.65
2022-08-31T17:12:24.875Z,25.61
2022-08-31T17:14:30.016Z,25.61
2022-08-31T17:16:34.781Z,25.67
2022-08-31T17:18:39.763Z,25.72
2022-08-31T17:20:45.212Z,25.77
2022-08-31T17:22:49.895Z,25.8
2022-08-31T17:24:54.766Z,25.79
2022-08-31T17:26:59.594Z,25.8
2022-08-31T17:29:04.410Z,25.8
2022-08-31T17:31:09.039Z,25.82
2022-08-31T17:33:13.863Z,25.83
2022-08-31T17:35:19.070Z,25.82
2022-08-31T17:37:23.815Z,25.8
2022-08-31T17:39:28.437Z,25.78
2022-08-31T17:41:33.059Z,25.8
2022-08-31T17:43:37.581Z,25.76
2022-08-31T17:45:42.095Z,25.75
2022-08-31T17:47:46.821Z,25.78
2022-08-31T17:49:51.437Z,25.79
2022-08-31T17:51:55.958Z,25.82
2022-08-31T17:54:02.229Z,25.84
2022-08-31T17:56:06.841Z,25.84
2022-08-31T17:58:11.519Z,25.82
2022-08-31T18:00:16.084Z,25.85
2022-08-31T18:02:21.735Z,25.85
2022-08-31T18:04:26.399Z,25.88
2022-08-31T18:06:31.391Z,25.92
2022-08-31T18:08:36.538Z,25.94
2022-08-31T18:10:41.139Z,25.97
2022-08-31T18:12:45.863Z,25.94
2022-08-31T18:14:50.591Z,25.91
2022-08-31T18:16:55.218Z,25.87
2022-08-31T18:19:00.137Z,25.84
2022-08-31T18:21:04.767Z,25.86
2022-08-31T18:23:09.380Z,25.84
2022-08-31T18:25:14.101Z,25.83
2022-08-31T18:27:18.759Z,25.85
2022-08-31T18:29:24.807Z,25.85
2022-08-31T18:31:30.165Z,25.86
2022-08-31T18:33:35.046Z,25.85
2022-08-31T18:35:40.488Z,25.82
2022-08-31T18:37:45.212Z,25.78
2022-08-31T18:39:51.743Z,25.76
2022-08-31T18:41:56.810Z,25.73
2022-08-31T18:44:01.541Z,25.73
2022-08-31T18:46:06.524Z,25.75
2022-08-31T18:48:24.632Z,25.75
2022-08-31T18:50:30.653Z,25.76
2022-08-31T18:52:40.401Z,25.75
2022-08-31T18:54:52.286Z,25.75
2022-08-31T18:56:57.222Z,25.77
2022-08-31T18:59:02.055Z,25.76
2022-08-31T19:01:06.996Z,25.79
2022-08-31T19:03:12.266Z,25.79
2022-08-31T19:05:16.933Z,25.76
2022-08-31T19:07:21.757Z,25.79
2022-08-31T19:09:26.482Z,25.79
2022-08-31T19:11:31.208Z,25.75
2022-08-31T19:13:37.156Z,25.7
2022-08-31T19:15:41.683Z,25.66
2022-08-31T19:17:46.401Z,25.63
2022-08-31T19:19:51.958Z,25.62
2022-08-31T19:21:58.032Z,25.58
2022-08-31T19:24:02.830Z,25.56
2022-08-31T19:26:11.029Z,25.51
2022-08-31T19:28:15.771Z,25.46
2022-08-31T19:30:23.253Z,25.39
2022-08-31T19:32:32.377Z,25.34
2022-08-31T19:34:38.301Z,25.3
2022-08-31T19:36:43.351Z,25.32
2022-08-31T19:38:48.175Z,25.31
2022-08-31T19:40:53.042Z,25.33
2022-08-31T19:42:59.839Z,25.3
2022-08-31T19:45:56.525Z,25.25
2022-08-31T19:48:13.475Z,25.22
2022-08-31T19:50:21.019Z,25.19
2022-08-31T19:52:25.663Z,25.16
2022-08-31T19:54:31.269Z,25.1
2022-08-31T19:56:36.111Z,25.08
2022-08-31T19:58:40.683Z,25.06
2022-08-31T20:00:45.460Z,25.02
2022-08-31T20:02:53.399Z,25
2022-08-31T20:04:58.288Z,24.97
2022-08-31T20:07:02.905Z,24.94
2022-08-31T20:09:08.465Z,24.89
2022-08-31T20:11:15.229Z,24.89
2022-08-31T20:13:25.173Z,24.83
2022-08-31T20:15:29.905Z,24.78
2022-08-31T20:17:34.612Z,24.76
2022-08-31T20:19:39.333Z,24.71
2022-08-31T20:21:43.819Z,24.7
2022-08-31T20:23:48.480Z,24.67
2022-08-31T20:25:53.097Z,24.67
2022-08-31T20:27:59.158Z,24.63
2022-08-31T20:30:04.005Z,24.62
2022-08-31T20:32:08.708Z,24.6
2022-08-31T20:34:18.355Z,24.58
2022-08-31T20:36:23.374Z,24.53
2022-08-31T20:38:27.999Z,24.46
2022-08-31T20:40:32.658Z,24.45
2022-08-31T20:42:37.546Z,24.44
2022-08-31T20:44:42.165Z,24.42
2022-08-31T20:46:52.675Z,24.39
2022-08-31T20:48:57.450Z,24.34
2022-08-31T20:51:02.069Z,24.33
2022-08-31T20:53:06.590Z,24.34
2022-08-31T20:55:11.103Z,24.34
2022-08-31T20:57:15.623Z,24.3
2022-08-31T20:59:20.245Z,24.34
2022-08-31T21:01:24.907Z,24.32
2022-08-31T21:03:29.591Z,24.28
2022-08-31T21:05:38.225Z,24.24
2022-08-31T21:07:43.343Z,24.23
2022-08-31T21:09:47.863Z,24.2
2022-08-31T21:11:52.518Z,24.23
2022-08-31T21:13:57.717Z,24.33
2022-08-31T21:16:02.264Z,24.4
2022-08-31T21:18:06.927Z,24.49
2022-08-31T21:20:11.684Z,24.59
2022-08-31T21:22:16.302Z,24.63
2022-08-31T21:24:20.935Z,24.69
2022-08-31T21:26:25.653Z,24.73
2022-08-31T21:28:30.270Z,24.75
2022-08-31T21:30:34.891Z,24.78
2022-08-31T21:32:39.520Z,24.8
2022-08-31T21:34:44.243Z,24.81
2022-08-31T21:36:48.871Z,24.83
2022-08-31T21:38:53.485Z,24.85
2022-08-31T21:40:58.105Z,24.85
2022-08-31T21:43:02.728Z,24.87
2022-08-31T21:45:07.356Z,24.89
2022-08-31T21:47:11.966Z,24.91
2022-08-31T21:49:16.483Z,24.91
2022-08-31T21:51:21.216Z,24.92
2022-08-31T21:53:25.962Z,24.92
2022-08-31T21:55:30.551Z,24.94
2022-08-31T21:57:35.179Z,24.95
2022-08-31T21:59:39.803Z,24.96
2022-08-31T22:01:44.495Z,24.96
2022-08-31T22:03:49.344Z,24.97
2022-08-31T22:05:53.967Z,24.97
2022-08-31T22:07:58.485Z,24.96
2022-08-31T22:10:03.112Z,24.97
2022-08-31T22:12:07.732Z,24.97
2022-08-31T22:14:12.457Z,25
2022-08-31T22:16:19.601Z,25
2022-08-31T22:18:59.533Z,25
2022-08-31T22:21:07.291Z,25.01
2022-08-31T22:23:12.003Z,25.04
2022-08-31T22:25:16.831Z,25.04
2022-08-31T22:27:23.600Z,25.05
2022-08-31T22:29:28.125Z,25.04
2022-08-31T22:31:33.408Z,25.04
2022-08-31T22:33:38.281Z,25.04
2022-08-31T22:35:51.811Z,25.06
2022-08-31T22:37:56.331Z,25.05
2022-08-31T22:40:01.002Z,25.06
2022-08-31T22:42:05.779Z,25.05
2022-08-31T22:44:10.296Z,25.05
2022-08-31T22:46:14.963Z,25.05
2022-08-31T22:48:20.016Z,25.05
2022-08-31T22:50:25.091Z,25.02
2022-08-31T22:52:29.605Z,25.02
2022-08-31T22:54:34.124Z,25.04
2022-08-31T22:56:38.749Z,25.04
2022-08-31T22:58:43.577Z,25.02
2022-08-31T23:00:48.183Z,25.02
2022-08-31T23:02:52.764Z,25.02
2022-08-31T23:04:57.328Z,25.03
2022-08-31T23:07:01.844Z,25.03
2022-08-31T23:09:06.472Z,25.04
2022-08-31T23:11:10.983Z,25.04
2022-08-31T23:13:15.620Z,25.04
2022-08-31T23:15:20.437Z,25.05
2022-08-31T23:17:25.058Z,25.05
2022-08-31T23:19:29.683Z,25.03
2022-08-31T23:21:34.197Z,25.02
2022-08-31T23:23:38.726Z,25.02
2022-08-31T23:25:43.555Z,25.03
2022-08-31T23:27:48.483Z,25.04
2022-08-31T23:29:53.004Z,25.03
2022-08-31T23:31:57.620Z,25.04
2022-08-31T23:34:02.247Z,25.04
2022-08-31T23:36:06.861Z,25.03
2022-08-31T23:38:11.556Z,25.01
2022-08-31T23:40:16.356Z,25.03
2022-08-31T23:42:21.243Z,25.03
2022-08-31T23:44:25.761Z,25.03
2022-08-31T23:46:30.427Z,25.01
2022-08-31T23:48:35.167Z,25.01
2022-08-31T23:50:39.721Z,25
2022-08-31T23:52:44.244Z,25.01
2022-08-31T23:54:48.868Z,25.01
2022-08-31T23:56:53.486Z,25.01
2022-08-31T23:58:58.105Z,25.01
